Orto / Ocaso: 06:58 / 17:05 UTC (Datos para LEAX 18-11-2018)

[fuente: ADDS]

METAR:


LEMG 181000Z 12020KT 7000 SCT015 BKN037 17/13 Q1003 NOSIG =
TAF AMD LEMG 180658Z 1806/1906 12015KT 9999 SCT020 SCT050 TX20/1814Z TN16/1807Z PROB40 TEMPO 1807/1824 12018G28KT 4000 RA BKN020 PROB40 TEMPO 1811/1820 13020G35KT 2000 TSRA BKN014 SCT015CB LEGR 181000Z VRB02KT 9999 SCT080 15/10 Q1004 =
TAF LEGR 180800Z 1809/1909 08004KT 9999 FEW040 SCT070 TX17/1814Z TN09/1905Z PROB40 TEMPO 1814/1822 15015G25KT 4000 RA BKN014 LEZL 181000Z 33005KT 270V030 8000 -RA BKN007 BKN012 15/14 Q1002 RERA NOSIG =
TAF AMD LEZL 181006Z 1810/1909 10008KT 9999 SCT045 TX16/1815Z TN14/1906Z PROB40 TEMPO 1810/1820 4000 RA BKN012 PROB30 TEMPO 1810/1815 3000 TSRA SCT020CB LEAM 181000Z 04013KT 350V070 9999 FEW035 SCT090 19/10 Q1005 =
TAF LEAM 180800Z 1809/1909 04015KT 9999 FEW035 TX20/1815Z TN16/1907Z PROB30 TEMPO 1820/1824 4000 RA BKN020 LEBA 181000Z 05005KT 020V080 9999 -RA FEW049 14/12 Q1003 =
TAF LEBA 180800Z 1809/1818 08006KT 9999 SCT040 PROB40 TEMPO 1809/1818 4000 RA BKN020 LEJR 181000Z 16006KT 120V210 8000 SCT014 BKN030 16/15 Q1002 RETSRA =
TAF AMD LEJR 180903Z 1809/1906 19012KT 9999 FEW035 TX22/1815Z TN15/1809Z TEMPO 1809/1811 17018G28KT TEMPO 1809/1824 4000 SHRA BKN014 FEW025TCU PROB40 TEMPO 1809/1811 2000 TSRA FEW010CB GEML 181000Z 26004KT 220V300 8000 NSC 18/15 Q1004 =
TAF GEML 180800Z 1809/1909 27008KT 9999 SCT012 SCT020 TX21/1813Z TN17/1906Z PROB30 TEMPO 1814/1819 4000 SHRA FEW025TCU LXGB 180950Z 21010KT 9999 FEW020 SCT050 17/13 Q1003 RETS NOSIG =
TAF AMD LXGB 180908Z 1809/1818 21014KT 9999 FEW008 SCT025 520002 PROB40 TEMPO 1809/1818 21018G28KT 4000 TSRA FEW010 BKN014CB 560002

TAFOR:


TAF AMD LEMG 180658Z 1806/1906 12015KT 9999 SCT020 SCT050 TX20/1814Z TN16/1807Z PROB40 TEMPO 1807/1824 12018G28KT 4000 RA BKN020 PROB40 TEMPO 1811/1820 13020G35KT 2000 TSRA BKN014 SCT015CB =
TAF LEGR 180800Z 1809/1909 08004KT 9999 FEW040 SCT070 TX17/1814Z TN09/1905Z PROB40 TEMPO 1814/1822 15015G25KT 4000 RA BKN014 =
TAF AMD LEZL 181006Z 1810/1909 10008KT 9999 SCT045 TX16/1815Z TN14/1906Z PROB40 TEMPO 1810/1820 4000 RA BKN012 PROB30 TEMPO 1810/1815 3000 TSRA SCT020CB =
TAF LEAM 180800Z 1809/1909 04015KT 9999 FEW035 TX20/1815Z TN16/1907Z PROB30 TEMPO 1820/1824 4000 RA BKN020 =
TAF LEBA 180800Z 1809/1818 08006KT 9999 SCT040 PROB40 TEMPO 1809/1818 4000 RA BKN020 =
TAF AMD LEJR 180903Z 1809/1906 19012KT 9999 FEW035 TX22/1815Z TN15/1809Z TEMPO 1809/1811 17018G28KT TEMPO 1809/1824 4000 SHRA BKN014 FEW025TCU PROB40 TEMPO 1809/1811 2000 TSRA FEW010CB =
TAF GEML 180800Z 1809/1909 27008KT 9999 SCT012 SCT020 TX21/1813Z TN17/1906Z PROB30 TEMPO 1814/1819 4000 SHRA FEW025TCU =
TAF AMD LXGB 180908Z 1809/1818 21014KT 9999 FEW008 SCT025 520002 PROB40 TEMPO 1809/1818 21018G28KT 4000 TSRA FEW010 BKN014CB 560002 =

Recuerde que, aunque regularmente actualizada, la información meteorológica aquí presentada no debe ser utilizada para la planificación de vuelos. Si lo desea, puede consultar la información meteorológica adecuada, tanto de aeródromos como en ruta, por las vías oficialmente establecidas en la legislación -> AQUí